sensor_id;sensor_type;location;lat;lon;timestamp;P1;durP1;ratioP1;P2;durP2;ratioP2
7398;SDS011;3740;50.700;7.184;2023-05-01T00:01:52;4.43;;;4.03;;
7398;SDS011;3740;50.700;7.184;2023-05-01T00:04:17;4.37;;;3.97;;
7398;SDS011;3740;50.700;7.184;2023-05-01T00:06:43;4.40;;;4.00;;
7398;SDS011;3740;50.700;7.184;2023-05-01T00:09:08;4.30;;;3.90;;
7398;SDS011;3740;50.700;7.184;2023-05-01T00:11:34;5.10;;;4.60;;
7398;SDS011;3740;50.700;7.184;2023-05-01T00:14:01;5.43;;;4.93;;
7398;SDS011;3740;50.700;7.184;2023-05-01T00:16:27;5.70;;;5.20;;
7398;SDS011;3740;50.700;7.184;2023-05-01T00:18:53;6.93;;;6.33;;
7398;SDS011;3740;50.700;7.184;2023-05-01T00:21:19;8.03;;;7.23;;
7398;SDS011;3740;50.700;7.184;2023-05-01T00:23:44;9.13;;;7.47;;
7398;SDS011;3740;50.700;7.184;2023-05-01T00:26:10;7.30;;;6.60;;
7398;SDS011;3740;50.700;7.184;2023-05-01T00:28:36;6.40;;;5.80;;
7398;SDS011;3740;50.700;7.184;2023-05-01T00:31:01;7.23;;;6.30;;
7398;SDS011;3740;50.700;7.184;2023-05-01T00:33:27;5.67;;;5.17;;
7398;SDS011;3740;50.700;7.184;2023-05-01T00:35:52;6.63;;;5.17;;
7398;SDS011;3740;50.700;7.184;2023-05-01T00:38:19;5.30;;;4.77;;
7398;SDS011;3740;50.700;7.184;2023-05-01T00:40:45;6.43;;;5.07;;
7398;SDS011;3740;50.700;7.184;2023-05-01T00:43:11;6.17;;;4.93;;
7398;SDS011;3740;50.700;7.184;2023-05-01T00:45:38;6.13;;;4.80;;
7398;SDS011;3740;50.700;7.184;2023-05-01T00:48:06;5.17;;;4.67;;
7398;SDS011;3740;50.700;7.184;2023-05-01T00:50:33;5.53;;;4.90;;
7398;SDS011;3740;50.700;7.184;2023-05-01T00:52:59;6.93;;;4.43;;
7398;SDS011;3740;50.700;7.184;2023-05-01T00:55:26;5.23;;;4.50;;
7398;SDS011;3740;50.700;7.184;2023-05-01T00:57:52;4.90;;;4.33;;
7398;SDS011;3740;50.700;7.184;2023-05-01T01:00:19;4.70;;;4.20;;
7398;SDS011;3740;50.700;7.184;2023-05-01T01:02:47;4.60;;;4.03;;
7398;SDS011;3740;50.700;7.184;2023-05-01T01:05:13;5.03;;;4.00;;
7398;SDS011;3740;50.700;7.184;2023-05-01T01:07:40;4.43;;;3.90;;
7398;SDS011;3740;50.700;7.184;2023-05-01T01:15:30;4.57;;;3.90;;
7398;SDS011;3740;50.700;7.184;2023-05-01T01:20:37;4.13;;;3.73;;
7398;SDS011;3740;50.700;7.184;2023-05-01T01:31:31;4.13;;;3.73;;
7398;SDS011;3740;50.700;7.184;2023-05-01T01:39:26;4.40;;;3.70;;
7398;SDS011;3740;50.700;7.184;2023-05-01T01:42:08;6.53;;;4.20;;
7398;SDS011;3740;50.700;7.184;2023-05-01T01:44:41;3.80;;;3.50;;
7398;SDS011;3740;50.700;7.184;2023-05-01T01:47:12;6.83;;;3.70;;
7398;SDS011;3740;50.700;7.184;2023-05-01T01:49:41;4.43;;;4.03;;
7398;SDS011;3740;50.700;7.184;2023-05-01T01:52:11;5.23;;;3.93;;
7398;SDS011;3740;50.700;7.184;2023-05-01T01:54:39;3.77;;;3.47;;
7398;SDS011;3740;50.700;7.184;2023-05-01T01:57:11;4.00;;;3.70;;
7398;SDS011;3740;50.700;7.184;2023-05-01T01:59:40;4.37;;;3.83;;
7398;SDS011;3740;50.700;7.184;2023-05-01T02:02:07;5.77;;;4.07;;
7398;SDS011;3740;50.700;7.184;2023-05-01T02:04:33;4.43;;;3.63;;
7398;SDS011;3740;50.700;7.184;2023-05-01T02:07:00;4.33;;;3.87;;
7398;SDS011;3740;50.700;7.184;2023-05-01T02:09:28;4.37;;;3.77;;
7398;SDS011;3740;50.700;7.184;2023-05-01T02:11:55;4.23;;;3.83;;
7398;SDS011;3740;50.700;7.184;2023-05-01T02:14:21;4.27;;;3.87;;
7398;SDS011;3740;50.700;7.184;2023-05-01T02:16:50;4.20;;;3.80;;
7398;SDS011;3740;50.700;7.184;2023-05-01T02:19:17;4.30;;;3.90;;
7398;SDS011;3740;50.700;7.184;2023-05-01T02:21:43;4.77;;;4.17;;
7398;SDS011;3740;50.700;7.184;2023-05-01T02:24:10;4.37;;;3.97;;
7398;SDS011;3740;50.700;7.184;2023-05-01T02:26:38;4.27;;;3.70;;
7398;SDS011;3740;50.700;7.184;2023-05-01T02:29:07;4.00;;;3.70;;
7398;SDS011;3740;50.700;7.184;2023-05-01T02:31:33;4.53;;;3.87;;
7398;SDS011;3740;50.700;7.184;2023-05-01T02:33:59;3.80;;;3.50;;
7398;SDS011;3740;50.700;7.184;2023-05-01T02:36:24;5.10;;;4.00;;
7398;SDS011;3740;50.700;7.184;2023-05-01T02:38:51;4.00;;;3.70;;
7398;SDS011;3740;50.700;7.184;2023-05-01T02:41:18;3.93;;;3.53;;
7398;SDS011;3740;50.700;7.184;2023-05-01T02:43:46;4.40;;;4.00;;
7398;SDS011;3740;50.700;7.184;2023-05-01T02:46:15;4.50;;;3.93;;
7398;SDS011;3740;50.700;7.184;2023-05-01T02:48:42;5.33;;;3.60;;
7398;SDS011;3740;50.700;7.184;2023-05-01T02:51:08;6.27;;;3.53;;
7398;SDS011;3740;50.700;7.184;2023-05-01T02:53:34;3.63;;;3.27;;
7398;SDS011;3740;50.700;7.184;2023-05-01T02:56:02;3.70;;;3.40;;
7398;SDS011;3740;50.700;7.184;2023-05-01T02:58:29;6.10;;;3.60;;
7398;SDS011;3740;50.700;7.184;2023-05-01T03:00:56;3.83;;;3.40;;
7398;SDS011;3740;50.700;7.184;2023-05-01T03:03:22;4.03;;;3.63;;
7398;SDS011;3740;50.700;7.184;2023-05-01T03:05:47;3.93;;;3.23;;
7398;SDS011;3740;50.700;7.184;2023-05-01T03:08:13;3.93;;;3.30;;
7398;SDS011;3740;50.700;7.184;2023-05-01T03:10:39;3.63;;;3.33;;
7398;SDS011;3740;50.700;7.184;2023-05-01T03:13:07;4.20;;;3.80;;
7398;SDS011;3740;50.700;7.184;2023-05-01T03:15:34;4.20;;;3.47;;
7398;SDS011;3740;50.700;7.184;2023-05-01T03:18:00;4.47;;;3.40;;
7398;SDS011;3740;50.700;7.184;2023-05-01T03:20:26;3.40;;;3.10;;
7398;SDS011;3740;50.700;7.184;2023-05-01T03:22:51;3.63;;;3.30;;
7398;SDS011;3740;50.700;7.184;2023-05-01T03:25:17;4.23;;;3.20;;
7398;SDS011;3740;50.700;7.184;2023-05-01T03:27:43;3.57;;;3.27;;
7398;SDS011;3740;50.700;7.184;2023-05-01T03:30:08;3.70;;;3.40;;
7398;SDS011;3740;50.700;7.184;2023-05-01T03:32:34;3.87;;;3.23;;
7398;SDS011;3740;50.700;7.184;2023-05-01T03:35:00;3.87;;;3.33;;
7398;SDS011;3740;50.700;7.184;2023-05-01T03:37:27;3.20;;;2.90;;
7398;SDS011;3740;50.700;7.184;2023-05-01T03:39:52;3.03;;;2.73;;
7398;SDS011;3740;50.700;7.184;2023-05-01T03:42:18;3.57;;;2.80;;
7398;SDS011;3740;50.700;7.184;2023-05-01T03:44:44;3.30;;;3.00;;
7398;SDS011;3740;50.700;7.184;2023-05-01T03:47:09;3.73;;;3.40;;
7398;SDS011;3740;50.700;7.184;2023-05-01T03:49:35;3.40;;;3.10;;
7398;SDS011;3740;50.700;7.184;2023-05-01T03:52:00;6.03;;;5.27;;
7398;SDS011;3740;50.700;7.184;2023-05-01T03:54:26;3.80;;;3.30;;
7398;SDS011;3740;50.700;7.184;2023-05-01T03:56:51;3.97;;;3.60;;
7398;SDS011;3740;50.700;7.184;2023-05-01T03:59:17;3.90;;;3.40;;
7398;SDS011;3740;50.700;7.184;2023-05-01T04:01:42;3.67;;;3.37;;
7398;SDS011;3740;50.700;7.184;2023-05-01T04:04:08;5.20;;;3.90;;
7398;SDS011;3740;50.700;7.184;2023-05-01T04:06:34;4.60;;;4.10;;
7398;SDS011;3740;50.700;7.184;2023-05-01T04:09:01;4.40;;;4.00;;
7398;SDS011;3740;50.700;7.184;2023-05-01T04:11:27;4.80;;;4.40;;
7398;SDS011;3740;50.700;7.184;2023-05-01T04:13:52;5.93;;;5.33;;
7398;SDS011;3740;50.700;7.184;2023-05-01T04:16:18;5.57;;;5.07;;
7398;SDS011;3740;50.700;7.184;2023-05-01T04:18:43;4.33;;;3.93;;
7398;SDS011;3740;50.700;7.184;2023-05-01T04:21:09;3.80;;;3.50;;
7398;SDS011;3740;50.700;7.184;2023-05-01T04:23:34;3.90;;;3.60;;
7398;SDS011;3740;50.700;7.184;2023-05-01T04:26:00;3.57;;;3.27;;
7398;SDS011;3740;50.700;7.184;2023-05-01T04:28:25;4.10;;;3.70;;
7398;SDS011;3740;50.700;7.184;2023-05-01T04:30:54;3.87;;;3.37;;
7398;SDS011;3740;50.700;7.184;2023-05-01T04:33:21;3.60;;;3.30;;
7398;SDS011;3740;50.700;7.184;2023-05-01T04:35:47;4.20;;;3.80;;
7398;SDS011;3740;50.700;7.184;2023-05-01T04:38:13;4.10;;;3.53;;
7398;SDS011;3740;50.700;7.184;2023-05-01T04:40:38;4.13;;;3.80;;
7398;SDS011;3740;50.700;7.184;2023-05-01T04:43:04;4.57;;;3.70;;
7398;SDS011;3740;50.700;7.184;2023-05-01T04:45:29;4.03;;;3.50;;
7398;SDS011;3740;50.700;7.184;2023-05-01T04:47:56;4.67;;;3.90;;
7398;SDS011;3740;50.700;7.184;2023-05-01T04:50:21;3.90;;;3.50;;
7398;SDS011;3740;50.700;7.184;2023-05-01T04:52:47;4.03;;;3.70;;
7398;SDS011;3740;50.700;7.184;2023-05-01T04:55:13;3.87;;;3.47;;
7398;SDS011;3740;50.700;7.184;2023-05-01T04:57:39;3.80;;;3.50;;
7398;SDS011;3740;50.700;7.184;2023-05-01T05:00:06;3.80;;;3.50;;
7398;SDS011;3740;50.700;7.184;2023-05-01T05:02:32;3.60;;;3.30;;
7398;SDS011;3740;50.700;7.184;2023-05-01T05:04:57;3.80;;;3.50;;
7398;SDS011;3740;50.700;7.184;2023-05-01T05:07:23;4.00;;;3.67;;
7398;SDS011;3740;50.700;7.184;2023-05-01T05:09:48;3.83;;;3.47;;
7398;SDS011;3740;50.700;7.184;2023-05-01T05:12:14;4.20;;;3.80;;
7398;SDS011;3740;50.700;7.184;2023-05-01T05:14:40;3.47;;;3.17;;
7398;SDS011;3740;50.700;7.184;2023-05-01T05:17:06;3.60;;;3.30;;
7398;SDS011;3740;50.700;7.184;2023-05-01T05:19:31;3.60;;;3.10;;
7398;SDS011;3740;50.700;7.184;2023-05-01T05:21:57;3.43;;;3.00;;
7398;SDS011;3740;50.700;7.184;2023-05-01T05:24:23;3.20;;;2.90;;
7398;SDS011;3740;50.700;7.184;2023-05-01T05:26:50;3.23;;;2.93;;
7398;SDS011;3740;50.700;7.184;2023-05-01T05:29:15;4.13;;;3.23;;
7398;SDS011;3740;50.700;7.184;2023-05-01T05:31:41;3.40;;;3.00;;
7398;SDS011;3740;50.700;7.184;2023-05-01T05:34:06;3.73;;;2.97;;
7398;SDS011;3740;50.700;7.184;2023-05-01T05:36:32;3.20;;;2.90;;
7398;SDS011;3740;50.700;7.184;2023-05-01T05:38:58;3.13;;;2.93;;
7398;SDS011;3740;50.700;7.184;2023-05-01T05:41:24;4.50;;;3.30;;
7398;SDS011;3740;50.700;7.184;2023-05-01T05:43:51;4.17;;;3.10;;
7398;SDS011;3740;50.700;7.184;2023-05-01T05:46:18;4.43;;;3.23;;
7398;SDS011;3740;50.700;7.184;2023-05-01T05:48:44;4.30;;;3.10;;
7398;SDS011;3740;50.700;7.184;2023-05-01T05:51:09;3.30;;;3.00;;
7398;SDS011;3740;50.700;7.184;2023-05-01T05:53:35;3.30;;;3.00;;
7398;SDS011;3740;50.700;7.184;2023-05-01T05:56:00;3.57;;;3.00;;
7398;SDS011;3740;50.700;7.184;2023-05-01T05:58:26;3.83;;;3.43;;
7398;SDS011;3740;50.700;7.184;2023-05-01T06:00:51;4.40;;;3.27;;
7398;SDS011;3740;50.700;7.184;2023-05-01T06:03:19;5.80;;;3.20;;
7398;SDS011;3740;50.700;7.184;2023-05-01T06:05:45;3.50;;;3.17;;
7398;SDS011;3740;50.700;7.184;2023-05-01T06:08:11;3.40;;;2.70;;
7398;SDS011;3740;50.700;7.184;2023-05-01T06:10:38;3.40;;;3.00;;
7398;SDS011;3740;50.700;7.184;2023-05-01T06:13:05;3.10;;;2.90;;
7398;SDS011;3740;50.700;7.184;2023-05-01T06:15:37;3.10;;;2.80;;
7398;SDS011;3740;50.700;7.184;2023-05-01T06:18:02;3.17;;;2.90;;
7398;SDS011;3740;50.700;7.184;2023-05-01T06:20:28;3.10;;;2.80;;
7398;SDS011;3740;50.700;7.184;2023-05-01T06:22:54;4.30;;;3.10;;
7398;SDS011;3740;50.700;7.184;2023-05-01T06:25:20;3.30;;;2.97;;
7398;SDS011;3740;50.700;7.184;2023-05-01T06:27:46;3.33;;;3.00;;
7398;SDS011;3740;50.700;7.184;2023-05-01T06:30:12;3.47;;;3.17;;
7398;SDS011;3740;50.700;7.184;2023-05-01T06:32:38;3.20;;;2.90;;
7398;SDS011;3740;50.700;7.184;2023-05-01T06:35:06;3.63;;;3.07;;
7398;SDS011;3740;50.700;7.184;2023-05-01T06:37:32;3.27;;;2.70;;
7398;SDS011;3740;50.700;7.184;2023-05-01T06:39:57;4.13;;;2.90;;
7398;SDS011;3740;50.700;7.184;2023-05-01T06:42:23;3.97;;;2.60;;
7398;SDS011;3740;50.700;7.184;2023-05-01T06:44:48;3.53;;;2.70;;
7398;SDS011;3740;50.700;7.184;2023-05-01T06:47:14;3.07;;;2.87;;
7398;SDS011;3740;50.700;7.184;2023-05-01T06:49:39;3.37;;;2.93;;
7398;SDS011;3740;50.700;7.184;2023-05-01T06:52:05;3.47;;;3.10;;
7398;SDS011;3740;50.700;7.184;2023-05-01T06:54:30;3.30;;;3.00;;
7398;SDS011;3740;50.700;7.184;2023-05-01T06:56:56;3.53;;;2.90;;
7398;SDS011;3740;50.700;7.184;2023-05-01T06:59:21;4.10;;;3.17;;
7398;SDS011;3740;50.700;7.184;2023-05-01T07:01:47;3.30;;;3.00;;
7398;SDS011;3740;50.700;7.184;2023-05-01T07:04:12;3.23;;;3.00;;
7398;SDS011;3740;50.700;7.184;2023-05-01T07:06:38;6.07;;;3.20;;
7398;SDS011;3740;50.700;7.184;2023-05-01T07:09:03;3.40;;;3.10;;
7398;SDS011;3740;50.700;7.184;2023-05-01T07:11:29;3.60;;;3.27;;
7398;SDS011;3740;50.700;7.184;2023-05-01T07:13:56;3.93;;;3.00;;
7398;SDS011;3740;50.700;7.184;2023-05-01T07:16:22;3.30;;;2.80;;
7398;SDS011;3740;50.700;7.184;2023-05-01T07:18:47;3.27;;;2.80;;
7398;SDS011;3740;50.700;7.184;2023-05-01T07:21:13;3.90;;;2.90;;
7398;SDS011;3740;50.700;7.184;2023-05-01T07:23:39;3.23;;;2.83;;
7398;SDS011;3740;50.700;7.184;2023-05-01T07:26:04;5.27;;;2.90;;
7398;SDS011;3740;50.700;7.184;2023-05-01T07:28:30;3.80;;;2.90;;
7398;SDS011;3740;50.700;7.184;2023-05-01T07:30:55;4.67;;;2.97;;
7398;SDS011;3740;50.700;7.184;2023-05-01T07:33:22;5.07;;;3.20;;
7398;SDS011;3740;50.700;7.184;2023-05-01T07:35:50;3.40;;;3.10;;
7398;SDS011;3740;50.700;7.184;2023-05-01T07:38:15;3.73;;;3.27;;
7398;SDS011;3740;50.700;7.184;2023-05-01T07:40:41;3.77;;;3.37;;
7398;SDS011;3740;50.700;7.184;2023-05-01T07:43:07;3.67;;;3.30;;
7398;SDS011;3740;50.700;7.184;2023-05-01T07:45:35;3.20;;;2.83;;
7398;SDS011;3740;50.700;7.184;2023-05-01T07:48:01;3.43;;;3.03;;
7398;SDS011;3740;50.700;7.184;2023-05-01T07:50:27;4.47;;;3.40;;
7398;SDS011;3740;50.700;7.184;2023-05-01T07:52:52;3.70;;;3.13;;
7398;SDS011;3740;50.700;7.184;2023-05-01T07:55:20;3.37;;;3.07;;
7398;SDS011;3740;50.700;7.184;2023-05-01T07:57:46;3.97;;;3.20;;
7398;SDS011;3740;50.700;7.184;2023-05-01T08:00:12;4.53;;;3.47;;
7398;SDS011;3740;50.700;7.184;2023-05-01T08:02:38;3.30;;;3.00;;
7398;SDS011;3740;50.700;7.184;2023-05-01T08:05:04;3.53;;;3.23;;
7398;SDS011;3740;50.700;7.184;2023-05-01T08:07:30;4.10;;;3.23;;
7398;SDS011;3740;50.700;7.184;2023-05-01T08:09:56;4.23;;;3.50;;
7398;SDS011;3740;50.700;7.184;2023-05-01T08:12:22;3.27;;;3.00;;
7398;SDS011;3740;50.700;7.184;2023-05-01T08:14:47;3.63;;;3.17;;
7398;SDS011;3740;50.700;7.184;2023-05-01T08:17:13;3.50;;;3.20;;
7398;SDS011;3740;50.700;7.184;2023-05-01T08:19:39;4.47;;;3.37;;
7398;SDS011;3740;50.700;7.184;2023-05-01T08:22:04;3.40;;;3.10;;
7398;SDS011;3740;50.700;7.184;2023-05-01T08:24:30;4.60;;;3.13;;
7398;SDS011;3740;50.700;7.184;2023-05-01T08:26:55;3.80;;;3.07;;
7398;SDS011;3740;50.700;7.184;2023-05-01T08:29:22;4.13;;;3.20;;
7398;SDS011;3740;50.700;7.184;2023-05-01T08:31:47;3.97;;;3.27;;
7398;SDS011;3740;50.700;7.184;2023-05-01T08:34:13;3.47;;;2.90;;
7398;SDS011;3740;50.700;7.184;2023-05-01T08:36:39;3.70;;;3.00;;
7398;SDS011;3740;50.700;7.184;2023-05-01T08:39:04;3.40;;;2.83;;
7398;SDS011;3740;50.700;7.184;2023-05-01T08:41:30;3.23;;;2.90;;
7398;SDS011;3740;50.700;7.184;2023-05-01T08:43:57;3.73;;;3.00;;
7398;SDS011;3740;50.700;7.184;2023-05-01T08:46:32;4.13;;;2.93;;
7398;SDS011;3740;50.700;7.184;2023-05-01T08:49:08;3.43;;;3.00;;
7398;SDS011;3740;50.700;7.184;2023-05-01T08:51:36;4.60;;;3.07;;
7398;SDS011;3740;50.700;7.184;2023-05-01T08:54:03;3.77;;;3.00;;
7398;SDS011;3740;50.700;7.184;2023-05-01T08:56:30;3.80;;;2.77;;
7398;SDS011;3740;50.700;7.184;2023-05-01T08:58:59;3.10;;;2.80;;
7398;SDS011;3740;50.700;7.184;2023-05-01T09:01:27;3.07;;;2.80;;
7398;SDS011;3740;50.700;7.184;2023-05-01T09:03:54;4.22;;;2.90;;
7398;SDS011;3740;50.700;7.184;2023-05-01T09:06:22;3.10;;;2.80;;
7398;SDS011;3740;50.700;7.184;2023-05-01T09:08:51;3.17;;;2.80;;
7398;SDS011;3740;50.700;7.184;2023-05-01T09:11:16;4.10;;;3.10;;
7398;SDS011;3740;50.700;7.184;2023-05-01T09:13:44;3.15;;;2.85;;
7398;SDS011;3740;50.700;7.184;2023-05-01T09:16:10;3.33;;;2.38;;
7398;SDS011;3740;50.700;7.184;2023-05-01T09:18:36;2.88;;;2.67;;
7398;SDS011;3740;50.700;7.184;2023-05-01T09:21:02;2.97;;;2.67;;
7398;SDS011;3740;50.700;7.184;2023-05-01T09:23:28;3.10;;;2.88;;
7398;SDS011;3740;50.700;7.184;2023-05-01T09:25:54;2.97;;;2.70;;
7398;SDS011;3740;50.700;7.184;2023-05-01T09:28:40;3.72;;;2.78;;
7398;SDS011;3740;50.700;7.184;2023-05-01T09:31:48;3.30;;;3.00;;
7398;SDS011;3740;50.700;7.184;2023-05-01T09:34:00;3.22;;;2.90;;
7398;SDS011;3740;50.700;7.184;2023-05-01T09:36:30;2.50;;;2.30;;
7398;SDS011;3740;50.700;7.184;2023-05-01T09:38:57;3.20;;;2.90;;
7398;SDS011;3740;50.700;7.184;2023-05-01T09:41:28;3.10;;;2.80;;
7398;SDS011;3740;50.700;7.184;2023-05-01T09:43:57;4.18;;;3.00;;
7398;SDS011;3740;50.700;7.184;2023-05-01T09:46:23;2.92;;;2.47;;
7398;SDS011;3740;50.700;7.184;2023-05-01T09:48:57;3.20;;;3.00;;
7398;SDS011;3740;50.700;7.184;2023-05-01T09:51:24;2.97;;;2.78;;
7398;SDS011;3740;50.700;7.184;2023-05-01T09:54:00;3.00;;;2.80;;
7398;SDS011;3740;50.700;7.184;2023-05-01T09:56:29;4.10;;;2.90;;
7398;SDS011;3740;50.700;7.184;2023-05-01T09:58:56;5.07;;;2.95;;
7398;SDS011;3740;50.700;7.184;2023-05-01T10:01:38;3.45;;;3.00;;
7398;SDS011;3740;50.700;7.184;2023-05-01T10:04:04;3.20;;;2.83;;
7398;SDS011;3740;50.700;7.184;2023-05-01T10:06:30;2.90;;;2.58;;
7398;SDS011;3740;50.700;7.184;2023-05-01T10:08:56;4.13;;;2.78;;
7398;SDS011;3740;50.700;7.184;2023-05-01T10:11:22;3.10;;;2.85;;
7398;SDS011;3740;50.700;7.184;2023-05-01T10:16:33;3.88;;;2.53;;
7398;SDS011;3740;50.700;7.184;2023-05-01T10:19:00;3.15;;;2.83;;
7398;SDS011;3740;50.700;7.184;2023-05-01T10:21:27;2.65;;;2.45;;
7398;SDS011;3740;50.700;7.184;2023-05-01T10:23:53;3.17;;;2.88;;
7398;SDS011;3740;50.700;7.184;2023-05-01T10:26:19;3.95;;;2.63;;
7398;SDS011;3740;50.700;7.184;2023-05-01T10:28:46;3.15;;;2.75;;
7398;SDS011;3740;50.700;7.184;2023-05-01T10:31:13;3.67;;;2.83;;
7398;SDS011;3740;50.700;7.184;2023-05-01T10:33:41;3.55;;;2.80;;
7398;SDS011;3740;50.700;7.184;2023-05-01T10:36:12;3.00;;;2.67;;
7398;SDS011;3740;50.700;7.184;2023-05-01T10:38:43;3.38;;;2.92;;
7398;SDS011;3740;50.700;7.184;2023-05-01T10:41:13;3.28;;;2.80;;
7398;SDS011;3740;50.700;7.184;2023-05-01T10:43:40;4.10;;;2.92;;
7398;SDS011;3740;50.700;7.184;2023-05-01T10:51:12;2.95;;;2.42;;
7398;SDS011;3740;50.700;7.184;2023-05-01T10:53:38;2.42;;;2.22;;
7398;SDS011;3740;50.700;7.184;2023-05-01T10:56:38;2.20;;;2.10;;
7398;SDS011;3740;50.700;7.184;2023-05-01T10:58:57;2.38;;;2.20;;
7398;SDS011;3740;50.700;7.184;2023-05-01T11:01:34;2.58;;;2.38;;
7398;SDS011;3740;50.700;7.184;2023-05-01T11:13:03;2.58;;;2.38;;
7398;SDS011;3740;50.700;7.184;2023-05-01T11:15:10;3.20;;;2.85;;
7398;SDS011;3740;50.700;7.184;2023-05-01T11:20:44;2.83;;;2.63;;
7398;SDS011;3740;50.700;7.184;2023-05-01T11:22:50;3.30;;;3.00;;
7398;SDS011;3740;50.700;7.184;2023-05-01T11:25:18;3.35;;;2.65;;
7398;SDS011;3740;50.700;7.184;2023-05-01T11:27:49;3.92;;;3.30;;
7398;SDS011;3740;50.700;7.184;2023-05-01T11:30:36;3.47;;;3.20;;
7398;SDS011;3740;50.700;7.184;2023-05-01T11:33:07;3.45;;;2.90;;
7398;SDS011;3740;50.700;7.184;2023-05-01T11:35:32;4.43;;;2.95;;
7398;SDS011;3740;50.700;7.184;2023-05-01T11:37:58;3.28;;;2.95;;
7398;SDS011;3740;50.700;7.184;2023-05-01T11:40:26;2.97;;;2.75;;
7398;SDS011;3740;50.700;7.184;2023-05-01T11:43:02;3.13;;;2.92;;
7398;SDS011;3740;50.700;7.184;2023-05-01T11:45:30;3.17;;;2.88;;
7398;SDS011;3740;50.700;7.184;2023-05-01T11:47:56;3.33;;;3.03;;
7398;SDS011;3740;50.700;7.184;2023-05-01T11:50:30;4.20;;;3.10;;
7398;SDS011;3740;50.700;7.184;2023-05-01T11:52:56;3.30;;;2.90;;
7398;SDS011;3740;50.700;7.184;2023-05-01T11:55:31;2.83;;;2.60;;
7398;SDS011;3740;50.700;7.184;2023-05-01T11:57:58;2.83;;;2.63;;
7398;SDS011;3740;50.700;7.184;2023-05-01T12:00:33;4.90;;;3.47;;
7398;SDS011;3740;50.700;7.184;2023-05-01T12:03:10;3.90;;;3.20;;
7398;SDS011;3740;50.700;7.184;2023-05-01T12:05:37;3.47;;;3.00;;
7398;SDS011;3740;50.700;7.184;2023-05-01T12:08:17;3.20;;;2.90;;
7398;SDS011;3740;50.700;7.184;2023-05-01T12:10:54;4.80;;;3.15;;
7398;SDS011;3740;50.700;7.184;2023-05-01T12:13:21;3.47;;;3.05;;
7398;SDS011;3740;50.700;7.184;2023-05-01T12:15:50;3.50;;;3.20;;
7398;SDS011;3740;50.700;7.184;2023-05-01T12:18:17;4.35;;;3.00;;
7398;SDS011;3740;50.700;7.184;2023-05-01T12:20:54;6.07;;;3.42;;
7398;SDS011;3740;50.700;7.184;2023-05-01T12:23:29;2.92;;;2.72;;
7398;SDS011;3740;50.700;7.184;2023-05-01T12:25:56;2.80;;;2.58;;
7398;SDS011;3740;50.700;7.184;2023-05-01T12:28:22;3.20;;;2.90;;
7398;SDS011;3740;50.700;7.184;2023-05-01T12:30:48;3.05;;;2.83;;
7398;SDS011;3740;50.700;7.184;2023-05-01T12:33:19;3.33;;;3.00;;
7398;SDS011;3740;50.700;7.184;2023-05-01T12:35:46;3.28;;;2.85;;
7398;SDS011;3740;50.700;7.184;2023-05-01T12:38:19;3.13;;;2.83;;
7398;SDS011;3740;50.700;7.184;2023-05-01T12:40:52;3.10;;;2.80;;
7398;SDS011;3740;50.700;7.184;2023-05-01T12:43:33;2.97;;;2.70;;
7398;SDS011;3740;50.700;7.184;2023-05-01T12:46:01;2.88;;;2.67;;
7398;SDS011;3740;50.700;7.184;2023-05-01T12:48:30;2.80;;;2.60;;
7398;SDS011;3740;50.700;7.184;2023-05-01T12:50:59;2.80;;;2.60;;
7398;SDS011;3740;50.700;7.184;2023-05-01T12:53:26;2.67;;;2.47;;
7398;SDS011;3740;50.700;7.184;2023-05-01T12:55:54;3.30;;;2.75;;
7398;SDS011;3740;50.700;7.184;2023-05-01T12:58:21;3.03;;;2.47;;
7398;SDS011;3740;50.700;7.184;2023-05-01T13:00:50;2.55;;;2.35;;
7398;SDS011;3740;50.700;7.184;2023-05-01T13:03:24;2.80;;;2.20;;
7398;SDS011;3740;50.700;7.184;2023-05-01T13:05:58;2.42;;;2.22;;
7398;SDS011;3740;50.700;7.184;2023-05-01T13:08:32;2.85;;;2.55;;
7398;SDS011;3740;50.700;7.184;2023-05-01T13:11:02;2.90;;;2.70;;
7398;SDS011;3740;50.700;7.184;2023-05-01T13:13:34;2.70;;;2.50;;
7398;SDS011;3740;50.700;7.184;2023-05-01T13:16:04;2.92;;;2.55;;
7398;SDS011;3740;50.700;7.184;2023-05-01T13:18:48;2.97;;;2.40;;
7398;SDS011;3740;50.700;7.184;2023-05-01T13:21:16;2.83;;;2.30;;
7398;SDS011;3740;50.700;7.184;2023-05-01T13:26:28;2.30;;;2.20;;
7398;SDS011;3740;50.700;7.184;2023-05-01T13:28:59;2.47;;;2.28;;
7398;SDS011;3740;50.700;7.184;2023-05-01T13:31:29;2.70;;;2.50;;
7398;SDS011;3740;50.700;7.184;2023-05-01T13:33:56;2.50;;;2.30;;
7398;SDS011;3740;50.700;7.184;2023-05-01T13:36:23;4.68;;;2.15;;
7398;SDS011;3740;50.700;7.184;2023-05-01T13:38:51;3.22;;;2.53;;
7398;SDS011;3740;50.700;7.184;2023-05-01T13:41:18;3.15;;;2.45;;
7398;SDS011;3740;50.700;7.184;2023-05-01T13:43:45;3.30;;;3.00;;
7398;SDS011;3740;50.700;7.184;2023-05-01T13:46:16;3.30;;;2.67;;
7398;SDS011;3740;50.700;7.184;2023-05-01T13:48:43;3.05;;;2.70;;
7398;SDS011;3740;50.700;7.184;2023-05-01T13:51:10;3.05;;;2.67;;
7398;SDS011;3740;50.700;7.184;2023-05-01T13:53:37;3.42;;;3.00;;
7398;SDS011;3740;50.700;7.184;2023-05-01T13:56:04;3.20;;;2.65;;
7398;SDS011;3740;50.700;7.184;2023-05-01T13:58:34;2.97;;;2.70;;
7398;SDS011;3740;50.700;7.184;2023-05-01T14:01:00;3.08;;;2.80;;
7398;SDS011;3740;50.700;7.184;2023-05-01T14:03:28;3.95;;;2.95;;
7398;SDS011;3740;50.700;7.184;2023-05-01T14:05:57;3.55;;;3.28;;
7398;SDS011;3740;50.700;7.184;2023-05-01T14:08:23;3.70;;;3.40;;
7398;SDS011;3740;50.700;7.184;2023-05-01T14:10:52;3.40;;;3.10;;
7398;SDS011;3740;50.700;7.184;2023-05-01T14:13:18;3.40;;;3.10;;
7398;SDS011;3740;50.700;7.184;2023-05-01T14:15:43;3.08;;;2.88;;
7398;SDS011;3740;50.700;7.184;2023-05-01T14:18:10;3.58;;;3.28;;
7398;SDS011;3740;50.700;7.184;2023-05-01T14:20:40;3.45;;;3.17;;
7398;SDS011;3740;50.700;7.184;2023-05-01T14:23:07;3.15;;;2.92;;
7398;SDS011;3740;50.700;7.184;2023-05-01T14:25:32;2.80;;;2.60;;
7398;SDS011;3740;50.700;7.184;2023-05-01T14:27:59;2.53;;;2.35;;
7398;SDS011;3740;50.700;7.184;2023-05-01T14:30:29;2.70;;;2.50;;
7398;SDS011;3740;50.700;7.184;2023-05-01T14:33:01;2.92;;;2.72;;
7398;SDS011;3740;50.700;7.184;2023-05-01T14:35:55;2.85;;;2.65;;
7398;SDS011;3740;50.700;7.184;2023-05-01T14:38:23;2.97;;;2.70;;
7398;SDS011;3740;50.700;7.184;2023-05-01T14:40:50;2.55;;;2.35;;
7398;SDS011;3740;50.700;7.184;2023-05-01T14:43:17;2.25;;;2.15;;
7398;SDS011;3740;50.700;7.184;2023-05-01T14:45:44;2.90;;;2.63;;
7398;SDS011;3740;50.700;7.184;2023-05-01T14:48:20;2.80;;;2.60;;
7398;SDS011;3740;50.700;7.184;2023-05-01T14:50:47;3.00;;;2.70;;
7398;SDS011;3740;50.700;7.184;2023-05-01T14:53:13;3.05;;;2.70;;
7398;SDS011;3740;50.700;7.184;2023-05-01T14:55:38;2.25;;;2.15;;
7398;SDS011;3740;50.700;7.184;2023-05-01T14:58:05;2.83;;;2.63;;
7398;SDS011;3740;50.700;7.184;2023-05-01T15:00:31;2.80;;;2.30;;
7398;SDS011;3740;50.700;7.184;2023-05-01T15:02:57;2.75;;;2.53;;
7398;SDS011;3740;50.700;7.184;2023-05-01T15:05:24;2.60;;;2.40;;
7398;SDS011;3740;50.700;7.184;2023-05-01T15:07:53;2.50;;;2.38;;
7398;SDS011;3740;50.700;7.184;2023-05-01T15:10:20;3.00;;;2.80;;
7398;SDS011;3740;50.700;7.184;2023-05-01T15:12:47;3.28;;;2.90;;
7398;SDS011;3740;50.700;7.184;2023-05-01T15:15:13;3.15;;;2.95;;
7398;SDS011;3740;50.700;7.184;2023-05-01T15:17:39;2.80;;;2.60;;
7398;SDS011;3740;50.700;7.184;2023-05-01T15:20:05;3.05;;;2.30;;
7398;SDS011;3740;50.700;7.184;2023-05-01T15:22:31;2.70;;;2.50;;
7398;SDS011;3740;50.700;7.184;2023-05-01T15:24:56;2.50;;;2.30;;
7398;SDS011;3740;50.700;7.184;2023-05-01T15:27:22;2.22;;;2.13;;
7398;SDS011;3740;50.700;7.184;2023-05-01T15:29:47;3.30;;;2.75;;
7398;SDS011;3740;50.700;7.184;2023-05-01T15:32:13;3.60;;;3.30;;
7398;SDS011;3740;50.700;7.184;2023-05-01T15:34:39;3.67;;;3.38;;
7398;SDS011;3740;50.700;7.184;2023-05-01T15:37:05;3.50;;;3.20;;
7398;SDS011;3740;50.700;7.184;2023-05-01T15:39:31;3.60;;;3.40;;
7398;SDS011;3740;50.700;7.184;2023-05-01T15:41:57;3.20;;;3.00;;
7398;SDS011;3740;50.700;7.184;2023-05-01T15:44:23;3.10;;;2.90;;
7398;SDS011;3740;50.700;7.184;2023-05-01T15:46:49;3.00;;;2.80;;
7398;SDS011;3740;50.700;7.184;2023-05-01T15:49:16;2.72;;;2.50;;
7398;SDS011;3740;50.700;7.184;2023-05-01T15:51:42;3.47;;;3.17;;
7398;SDS011;3740;50.700;7.184;2023-05-01T15:54:08;3.00;;;2.80;;
7398;SDS011;3740;50.700;7.184;2023-05-01T15:56:34;3.30;;;3.00;;
7398;SDS011;3740;50.700;7.184;2023-05-01T15:59:03;3.30;;;3.00;;
7398;SDS011;3740;50.700;7.184;2023-05-01T16:01:30;2.60;;;2.40;;